Time;durP1;ratioP1;P1;durP2;ratioP2;P2;SDS_P1;SDS_P2;PMS_P1;PMS_P2;Temp;Humidity;BMP_temperature;BMP_pressure;BME280_temperature;BME280_humidity;BME280_pressure;Samples;Min_cycle;Max_cycle;Signal;HPM_P1;HPM_P2
2021/12/12 00:00:55;;;;;;;27.27;20.13;;;;;;;;;;5137077;27;20208;-84
2021/12/12 00:03:34;;;;;;;28.13;19.23;;;;;;;;;;5137056;27;20211;-84
2021/12/12 00:06:08;;;;;;;23.47;12.70;;;;;;;;;;5137028;27;20203;-83
2021/12/12 00:08:39;;;;;;;26.50;15.67;;;;;;;;;;5136778;27;20231;-83
2021/12/12 00:11:09;;;;;;;30.17;18.23;;;;;;;;;;5136604;27;20211;-84
2021/12/12 00:13:39;;;;;;;23.00;17.93;;;;;;;;;;5136439;27;20221;-84
2021/12/12 00:16:08;;;;;;;31.83;20.63;;;;;;;;;;5136789;27;20224;-84
2021/12/12 00:18:37;;;;;;;20.17;12.07;;;;;;;;;;5136624;27;20200;-84
2021/12/12 00:21:07;;;;;;;25.67;18.63;;;;;;;;;;5136267;27;20239;-84
2021/12/12 00:23:35;;;;;;;18.33;11.97;;;;;;;;;;5136507;27;20291;-83
2021/12/12 00:26:06;;;;;;;22.73;14.07;;;;;;;;;;5136673;27;20241;-83
2021/12/12 00:28:35;;;;;;;28.97;16.07;;;;;;;;;;5136327;27;20264;-84
2021/12/12 00:31:08;;;;;;;27.23;17.33;;;;;;;;;;5136454;27;20223;-84
2021/12/12 00:33:37;;;;;;;25.37;19.23;;;;;;;;;;5136258;27;20199;-84
2021/12/12 00:36:06;;;;;;;29.73;18.53;;;;;;;;;;5136353;27;20196;-84
2021/12/12 00:38:36;;;;;;;31.47;21.33;;;;;;;;;;5135964;27;20203;-84
2021/12/12 00:41:07;;;;;;;31.07;19.47;;;;;;;;;;5136148;27;20210;-84
2021/12/12 00:43:37;;;;;;;26.97;19.57;;;;;;;;;;5135985;27;20282;-84
2021/12/12 00:46:07;;;;;;;22.03;10.70;;;;;;;;;;5136510;27;20235;-84
2021/12/12 00:48:36;;;;;;;30.27;22.10;;;;;;;;;;5136176;27;20196;-84
2021/12/12 00:51:06;;;;;;;30.17;20.27;;;;;;;;;;5136324;27;20195;-84
2021/12/12 00:53:34;;;;;;;25.77;17.43;;;;;;;;;;5136076;27;20227;-84
2021/12/12 00:56:03;;;;;;;23.20;12.10;;;;;;;;;;5135785;27;20254;-84
2021/12/12 00:58:33;;;;;;;18.83;12.17;;;;;;;;;;5135928;27;20250;-84
2021/12/12 01:01:03;;;;;;;30.47;23.87;;;;;;;;;;5136193;27;20208;-84
2021/12/12 01:03:33;;;;;;;29.03;21.10;;;;;;;;;;5136177;27;20272;-84
2021/12/12 01:06:03;;;;;;;30.73;22.07;;;;;;;;;;5135658;27;20216;-84
2021/12/12 01:08:31;;;;;;;32.90;20.97;;;;;;;;;;5135692;27;20212;-84
2021/12/12 01:11:06;;;;;;;46.87;28.57;;;;;;;;;;5135516;27;20214;-84
2021/12/12 01:13:36;;;;;;;36.93;27.90;;;;;;;;;;5135551;27;20259;-83
2021/12/12 01:16:09;;;;;;;40.83;27.13;;;;;;;;;;5135590;27;20203;-84
2021/12/12 01:18:39;;;;;;;37.20;25.07;;;;;;;;;;5135831;27;20282;-84
2021/12/12 01:21:13;;;;;;;38.37;28.33;;;;;;;;;;5135341;27;20235;-84
2021/12/12 01:23:43;;;;;;;41.43;22.17;;;;;;;;;;5135276;27;20219;-84
2021/12/12 01:26:12;;;;;;;38.07;28.30;;;;;;;;;;5135423;27;20200;-84
2021/12/12 01:28:43;;;;;;;40.73;28.83;;;;;;;;;;5135208;27;20248;-84
2021/12/12 01:31:13;;;;;;;32.03;22.87;;;;;;;;;;5136010;27;20220;-84
2021/12/12 01:33:44;;;;;;;46.53;31.17;;;;;;;;;;5135244;27;20199;-84
2021/12/12 01:36:22;;;;;;;41.50;29.00;;;;;;;;;;5135620;27;20212;-84
2021/12/12 01:38:53;;;;;;;47.17;32.47;;;;;;;;;;5135351;27;20207;-84
2021/12/12 01:41:24;;;;;;;47.37;34.33;;;;;;;;;;5135417;27;20219;-84
2021/12/12 01:43:55;;;;;;;38.20;29.40;;;;;;;;;;5135381;27;20183;-84
2021/12/12 01:46:25;;;;;;;48.90;38.83;;;;;;;;;;5135317;27;20180;-84
2021/12/12 01:48:56;;;;;;;44.60;36.40;;;;;;;;;;5135209;27;20231;-84
2021/12/12 01:51:25;;;;;;;43.33;33.93;;;;;;;;;;5134808;27;20230;-84
2021/12/12 01:53:55;;;;;;;50.77;36.13;;;;;;;;;;5134134;27;20241;-84
2021/12/12 01:56:25;;;;;;;32.93;24.23;;;;;;;;;;5134765;27;20248;-84
2021/12/12 01:58:58;;;;;;;44.33;29.47;;;;;;;;;;5134862;27;20211;-83
2021/12/12 02:01:29;;;;;;;42.33;26.00;;;;;;;;;;5134987;27;20233;-83
2021/12/12 02:04:00;;;;;;;42.33;37.17;;;;;;;;;;5134906;27;20219;-83
2021/12/12 02:06:30;;;;;;;47.40;36.20;;;;;;;;;;5134925;27;20254;-84
2021/12/12 02:08:59;;;;;;;44.30;32.87;;;;;;;;;;5135268;27;20222;-83
2021/12/12 02:11:30;;;;;;;43.43;27.40;;;;;;;;;;5134830;27;20252;-83
2021/12/12 02:14:08;;;;;;;44.73;35.80;;;;;;;;;;5134915;27;20196;-83
2021/12/12 02:16:38;;;;;;;33.83;20.13;;;;;;;;;;5134545;27;20188;-84
2021/12/12 02:19:07;;;;;;;33.03;29.50;;;;;;;;;;5134762;27;20302;-84
2021/12/12 02:21:46;;;;;;;16.90;12.70;;;;;;;;;;5134508;27;20263;-84
2021/12/12 02:35:03;;;;;;;33.57;21.47;;;;;;;;;;5134875;27;20268;-84
2021/12/12 02:35:41;;;;;;;37.47;28.93;;;;;;;;;;5134602;28;20201;-83
2021/12/12 02:38:11;;;;;;;15.63;11.60;;;;;;;;;;5134777;27;20188;-83
2021/12/12 02:40:42;;;;;;;35.67;31.50;;;;;;;;;;5134698;27;20200;-83
2021/12/12 02:43:12;;;;;;;34.53;25.80;;;;;;;;;;5134480;27;20227;-83
2021/12/12 02:45:41;;;;;;;34.57;28.80;;;;;;;;;;5134737;27;20223;-83
2021/12/12 02:48:16;;;;;;;30.03;24.57;;;;;;;;;;5134203;27;20311;-83
2021/12/12 02:50:46;;;;;;;20.83;16.60;;;;;;;;;;5134783;27;20191;-83
2021/12/12 02:53:15;;;;;;;29.37;22.47;;;;;;;;;;5134826;27;20236;-84
2021/12/12 02:55:48;;;;;;;29.10;26.00;;;;;;;;;;5134350;27;20222;-84
2021/12/12 02:58:20;;;;;;;27.40;22.17;;;;;;;;;;5134464;27;20208;-84
2021/12/12 03:00:59;;;;;;;27.17;23.37;;;;;;;;;;5134734;27;20197;-84
2021/12/12 03:03:28;;;;;;;26.70;19.90;;;;;;;;;;5134270;27;20254;-84
2021/12/12 03:05:57;;;;;;;26.93;20.97;;;;;;;;;;5136113;27;20228;-84
2021/12/12 03:08:26;;;;;;;31.07;27.77;;;;;;;;;;5138215;27;20223;-84
2021/12/12 03:10:56;;;;;;;30.83;24.57;;;;;;;;;;5138295;27;20204;-84
2021/12/12 03:13:25;;;;;;;29.40;26.27;;;;;;;;;;5137113;27;20236;-84
2021/12/12 03:15:54;;;;;;;31.27;27.93;;;;;;;;;;5138122;27;20227;-84
2021/12/12 03:18:25;;;;;;;22.43;14.03;;;;;;;;;;5137764;27;20207;-84
2021/12/12 03:20:56;;;;;;;15.30;8.17;;;;;;;;;;5137229;27;20258;-85
2021/12/12 03:23:26;;;;;;;25.63;22.93;;;;;;;;;;5137892;27;20200;-84
2021/12/12 03:25:59;;;;;;;16.00;11.57;;;;;;;;;;5137801;27;20188;-84
2021/12/12 03:28:29;;;;;;;28.47;15.87;;;;;;;;;;5138059;27;20205;-84
2021/12/12 03:30:58;;;;;;;7.67;5.77;;;;;;;;;;5137892;27;20196;-84
2021/12/12 03:33:28;;;;;;;23.43;20.50;;;;;;;;;;5137540;27;20203;-84
2021/12/12 03:35:57;;;;;;;18.60;16.13;;;;;;;;;;5137992;27;20220;-84
2021/12/12 03:38:27;;;;;;;31.17;23.03;;;;;;;;;;5137910;27;20268;-84
2021/12/12 03:40:58;;;;;;;10.73;9.23;;;;;;;;;;5137680;27;20208;-84
2021/12/12 03:43:28;;;;;;;23.27;18.97;;;;;;;;;;5137232;27;20200;-84
2021/12/12 03:45:58;;;;;;;24.83;18.37;;;;;;;;;;5137697;27;20203;-84
2021/12/12 03:48:28;;;;;;;16.70;12.83;;;;;;;;;;5137062;27;20228;-84
2021/12/12 03:50:57;;;;;;;20.97;14.27;;;;;;;;;;5137192;27;20250;-84
2021/12/12 03:53:26;;;;;;;25.17;21.70;;;;;;;;;;5137461;27;20230;-84
2021/12/12 03:55:55;;;;;;;31.03;24.50;;;;;;;;;;5137273;27;20278;-84
2021/12/12 03:58:27;;;;;;;26.83;24.03;;;;;;;;;;5137474;27;20224;-84
2021/12/12 04:00:58;;;;;;;31.27;25.03;;;;;;;;;;5137307;27;20231;-84
2021/12/12 04:03:27;;;;;;;15.10;12.17;;;;;;;;;;5137413;27;20230;-84
2021/12/12 04:05:58;;;;;;;28.60;23.17;;;;;;;;;;5136993;27;20204;-84
2021/12/12 04:08:27;;;;;;;26.87;19.80;;;;;;;;;;5137037;27;20224;-84
2021/12/12 04:10:55;;;;;;;23.83;8.83;;;;;;;;;;5137044;27;20292;-84
2021/12/12 04:13:25;;;;;;;30.47;19.57;;;;;;;;;;5136281;27;20295;-84
2021/12/12 04:15:55;;;;;;;30.67;22.37;;;;;;;;;;5137229;27;20208;-84
2021/12/12 04:18:24;;;;;;;38.80;27.23;;;;;;;;;;5136015;27;20226;-84
2021/12/12 04:20:52;;;;;;;29.47;21.83;;;;;;;;;;5136742;27;20297;-84
2021/12/12 04:23:22;;;;;;;34.23;23.83;;;;;;;;;;5136554;27;20227;-84
2021/12/12 04:25:51;;;;;;;21.33;16.60;;;;;;;;;;5136638;27;20193;-84
2021/12/12 04:28:19;;;;;;;27.97;21.57;;;;;;;;;;5136341;27;20248;-84
2021/12/12 04:30:49;;;;;;;40.70;31.97;;;;;;;;;;5136539;27;20228;-83
2021/12/12 04:33:18;;;;;;;17.00;11.83;;;;;;;;;;5135973;27;20208;-84
2021/12/12 04:35:46;;;;;;;40.53;31.97;;;;;;;;;;5136884;27;20288;-84
2021/12/12 04:38:14;;;;;;;40.27;30.80;;;;;;;;;;5136408;27;20204;-84
2021/12/12 04:40:43;;;;;;;43.33;29.80;;;;;;;;;;5136483;27;20235;-84
2021/12/12 04:43:11;;;;;;;24.67;15.87;;;;;;;;;;5136362;27;20201;-84
2021/12/12 04:45:51;;;;;;;36.50;19.77;;;;;;;;;;5136123;27;20207;-84
2021/12/12 04:51:17;;;;;;;47.07;32.03;;;;;;;;;;5136304;27;20222;-84
2021/12/12 04:53:48;;;;;;;36.93;22.97;;;;;;;;;;5135874;27;20180;-84
2021/12/12 04:56:19;;;;;;;47.57;29.20;;;;;;;;;;5135639;27;20228;-84
2021/12/12 04:58:50;;;;;;;35.13;20.63;;;;;;;;;;5136052;27;20195;-84
2021/12/12 05:01:20;;;;;;;19.27;10.90;;;;;;;;;;5136395;27;20223;-84
2021/12/12 05:03:51;;;;;;;39.17;23.27;;;;;;;;;;5135766;27;20231;-84
2021/12/12 05:06:22;;;;;;;21.97;13.20;;;;;;;;;;5136016;27;20225;-84
2021/12/12 05:08:53;;;;;;;32.37;20.23;;;;;;;;;;5135883;27;20231;-84
2021/12/12 05:11:26;;;;;;;35.03;21.90;;;;;;;;;;5135681;27;20284;-84
2021/12/12 05:13:57;;;;;;;43.20;29.50;;;;;;;;;;5135840;27;20208;-84
2021/12/12 05:16:27;;;;;;;16.50;8.27;;;;;;;;;;5136067;27;20204;-84
2021/12/12 05:19:05;;;;;;;31.00;19.63;;;;;;;;;;5135583;27;20188;-84
2021/12/12 05:21:35;;;;;;;27.30;12.73;;;;;;;;;;5135256;27;20235;-84
2021/12/12 05:24:06;;;;;;;27.60;17.67;;;;;;;;;;5135514;27;20269;-84
2021/12/12 05:26:36;;;;;;;30.50;16.30;;;;;;;;;;5135545;27;20195;-84
2021/12/12 05:29:05;;;;;;;39.67;20.47;;;;;;;;;;5135307;27;20232;-84
2021/12/12 05:31:34;;;;;;;24.33;12.67;;;;;;;;;;5135451;27;20216;-84
2021/12/12 05:34:05;;;;;;;32.90;16.83;;;;;;;;;;5135202;27;20193;-84
2021/12/12 05:36:34;;;;;;;40.93;20.93;;;;;;;;;;5135086;27;20189;-84
2021/12/12 05:39:04;;;;;;;32.40;19.83;;;;;;;;;;5135147;27;20228;-84
2021/12/12 05:41:33;;;;;;;17.80;13.90;;;;;;;;;;5135487;27;20249;-84
2021/12/12 05:44:03;;;;;;;28.63;14.43;;;;;;;;;;5135510;27;20199;-84
2021/12/12 05:46:31;;;;;;;19.07;9.77;;;;;;;;;;5135143;27;20297;-84
2021/12/12 05:49:04;;;;;;;18.43;12.87;;;;;;;;;;5135203;27;20227;-84
2021/12/12 05:51:35;;;;;;;36.90;17.13;;;;;;;;;;5135572;27;20208;-84
2021/12/12 05:54:05;;;;;;;44.27;25.50;;;;;;;;;;5135092;27;20215;-84
2021/12/12 05:56:36;;;;;;;12.97;8.23;;;;;;;;;;5134964;27;20313;-84
2021/12/12 05:59:05;;;;;;;25.83;14.97;;;;;;;;;;5134996;27;20234;-84
2021/12/12 06:01:34;;;;;;;12.97;7.13;;;;;;;;;;5135010;27;20297;-84
2021/12/12 06:04:03;;;;;;;33.83;16.13;;;;;;;;;;5135060;27;20274;-84
2021/12/12 06:06:35;;;;;;;26.70;14.77;;;;;;;;;;5135275;27;20223;-84
2021/12/12 06:09:07;;;;;;;13.37;9.03;;;;;;;;;;5135037;27;20229;-84
2021/12/12 06:11:37;;;;;;;18.03;11.83;;;;;;;;;;5135214;27;20254;-84
2021/12/12 06:14:08;;;;;;;27.63;14.10;;;;;;;;;;5134788;27;20254;-84
2021/12/12 06:16:37;;;;;;;15.13;9.43;;;;;;;;;;5134922;27;20206;-84
2021/12/12 06:19:07;;;;;;;8.63;4.67;;;;;;;;;;5135141;27;20205;-84
2021/12/12 06:21:36;;;;;;;28.30;14.10;;;;;;;;;;5134549;27;20305;-84
2021/12/12 06:24:07;;;;;;;21.47;12.17;;;;;;;;;;5134997;27;20232;-84
2021/12/12 06:26:36;;;;;;;38.73;15.57;;;;;;;;;;5135025;27;20262;-84
2021/12/12 06:29:08;;;;;;;18.97;10.30;;;;;;;;;;5134779;27;20208;-85
2021/12/12 06:31:37;;;;;;;37.40;21.23;;;;;;;;;;5134951;27;20253;-84
2021/12/12 06:34:06;;;;;;;36.10;16.70;;;;;;;;;;5134755;27;20271;-84
2021/12/12 06:36:34;;;;;;;30.60;15.43;;;;;;;;;;5134477;27;20210;-84
2021/12/12 06:39:05;;;;;;;32.77;16.20;;;;;;;;;;5134647;27;20214;-84
2021/12/12 06:41:37;;;;;;;40.97;17.80;;;;;;;;;;5137877;27;20189;-84
2021/12/12 06:44:08;;;;;;;19.70;12.00;;;;;;;;;;5138842;27;20224;-84
2021/12/12 06:46:37;;;;;;;20.77;7.13;;;;;;;;;;5138882;27;20248;-84
2021/12/12 06:49:07;;;;;;;26.70;13.83;;;;;;;;;;5138563;27;20202;-84
2021/12/12 06:51:40;;;;;;;33.80;14.40;;;;;;;;;;5138434;27;20292;-84
2021/12/12 06:54:09;;;;;;;17.10;10.27;;;;;;;;;;5138629;27;20243;-84
2021/12/12 06:56:39;;;;;;;29.07;15.63;;;;;;;;;;5138190;27;20210;-84
2021/12/12 06:59:07;;;;;;;6.70;4.73;;;;;;;;;;5138347;27;20255;-84
2021/12/12 07:01:36;;;;;;;12.87;6.20;;;;;;;;;;5138491;27;20213;-84
2021/12/12 07:04:08;;;;;;;31.00;13.40;;;;;;;;;;5138176;27;20275;-84
2021/12/12 07:06:37;;;;;;;24.67;11.07;;;;;;;;;;5138143;27;20222;-84
2021/12/12 07:09:08;;;;;;;11.97;6.87;;;;;;;;;;5138053;27;20201;-84
2021/12/12 07:11:37;;;;;;;32.37;12.00;;;;;;;;;;5137580;27;20252;-84
2021/12/12 07:14:08;;;;;;;18.20;10.23;;;;;;;;;;5138292;27;20252;-84
2021/12/12 07:16:37;;;;;;;12.60;6.30;;;;;;;;;;5138399;27;20229;-84
2021/12/12 07:19:06;;;;;;;14.83;7.53;;;;;;;;;;5138287;27;20217;-84
2021/12/12 07:21:35;;;;;;;16.63;8.83;;;;;;;;;;5137585;27;20311;-84
2021/12/12 07:24:04;;;;;;;11.90;6.80;;;;;;;;;;5137682;27;20200;-84
2021/12/12 07:26:33;;;;;;;21.43;11.80;;;;;;;;;;5137944;27;20254;-84
2021/12/12 07:29:02;;;;;;;13.63;7.33;;;;;;;;;;5137842;27;20202;-84
2021/12/12 07:31:34;;;;;;;7.97;6.87;;;;;;;;;;5137366;27;20253;-84
2021/12/12 07:34:04;;;;;;;12.07;7.17;;;;;;;;;;5137819;27;20207;-85
2021/12/12 07:36:34;;;;;;;18.33;9.60;;;;;;;;;;5137494;27;20196;-85
2021/12/12 07:39:05;;;;;;;4.97;4.43;;;;;;;;;;5137621;27;20241;-84
2021/12/12 07:41:34;;;;;;;15.77;8.63;;;;;;;;;;5137405;27;20187;-84
2021/12/12 07:44:05;;;;;;;14.97;8.30;;;;;;;;;;5137693;27;20230;-84
2021/12/12 07:46:36;;;;;;;11.20;5.37;;;;;;;;;;5137706;27;20210;-84
2021/12/12 07:49:05;;;;;;;11.77;5.53;;;;;;;;;;5137730;27;20253;-85
2021/12/12 07:51:34;;;;;;;14.40;5.23;;;;;;;;;;5136407;27;20614;-85
2021/12/12 07:54:03;;;;;;;11.60;5.13;;;;;;;;;;5137698;27;20625;-85
2021/12/12 07:56:33;;;;;;;19.77;8.00;;;;;;;;;;5137133;27;20236;-84
2021/12/12 07:59:04;;;;;;;10.30;6.23;;;;;;;;;;5137902;27;20199;-85
2021/12/12 08:01:36;;;;;;;13.53;4.13;;;;;;;;;;5137051;27;20248;-85
2021/12/12 08:04:05;;;;;;;17.87;7.57;;;;;;;;;;5137129;27;20222;-85
2021/12/12 08:06:33;;;;;;;3.03;2.80;;;;;;;;;;5137077;27;20202;-85
2021/12/12 08:09:02;;;;;;;12.60;4.67;;;;;;;;;;5137183;27;20206;-85
2021/12/12 08:11:33;;;;;;;8.80;5.13;;;;;;;;;;5136569;27;20304;-85
2021/12/12 08:14:01;;;;;;;2.40;2.20;;;;;;;;;;5136963;27;20206;-85
2021/12/12 08:16:30;;;;;;;6.13;4.93;;;;;;;;;;5136967;27;20225;-85
2021/12/12 08:19:00;;;;;;;11.70;4.87;;;;;;;;;;5136897;27;20297;-85
2021/12/12 08:21:33;;;;;;;11.87;4.67;;;;;;;;;;5136377;27;20272;-85
2021/12/12 08:24:02;;;;;;;4.70;3.27;;;;;;;;;;5136644;27;20218;-85
2021/12/12 08:26:30;;;;;;;9.10;4.07;;;;;;;;;;5136592;27;20272;-85
2021/12/12 08:28:59;;;;;;;5.37;3.47;;;;;;;;;;5136688;27;20210;-85
2021/12/12 08:31:28;;;;;;;4.00;2.57;;;;;;;;;;5136148;27;20227;-85
2021/12/12 08:33:57;;;;;;;11.33;3.50;;;;;;;;;;5136656;27;20209;-85
2021/12/12 08:36:28;;;;;;;4.60;2.57;;;;;;;;;;5136421;27;20203;-85
2021/12/12 08:38:56;;;;;;;3.73;2.63;;;;;;;;;;5136269;27;20256;-85
2021/12/12 08:41:28;;;;;;;9.63;4.20;;;;;;;;;;5136258;27;20192;-85
2021/12/12 08:43:57;;;;;;;5.30;3.03;;;;;;;;;;5136030;27;20198;-85
2021/12/12 08:46:26;;;;;;;7.10;3.90;;;;;;;;;;5136606;27;20232;-85
2021/12/12 08:48:54;;;;;;;9.13;5.17;;;;;;;;;;5136171;27;20204;-85
2021/12/12 08:51:29;;;;;;;3.00;2.70;;;;;;;;;;5136231;27;20248;-85
2021/12/12 08:54:03;;;;;;;8.03;3.03;;;;;;;;;;5135518;27;20700;-85
2021/12/12 08:56:42;;;;;;;4.20;3.13;;;;;;;;;;5136021;27;20296;-85
2021/12/12 08:59:11;;;;;;;6.13;3.50;;;;;;;;;;5134938;27;20270;-85
2021/12/12 09:01:40;;;;;;;3.10;2.37;;;;;;;;;;5135715;27;20205;-85
2021/12/12 09:04:09;;;;;;;3.87;2.80;;;;;;;;;;5135525;27;20222;-85
2021/12/12 09:06:58;;;;;;;8.07;5.40;;;;;;;;;;5136172;27;20192;-85
2021/12/12 09:09:30;;;;;;;6.03;3.97;;;;;;;;;;5135654;27;20202;-85
2021/12/12 09:12:02;;;;;;;10.87;4.90;;;;;;;;;;5135428;27;20229;-85
2021/12/12 09:14:33;;;;;;;7.30;5.10;;;;;;;;;;5135361;27;20187;-85
2021/12/12 09:17:05;;;;;;;5.50;3.27;;;;;;;;;;5135953;27;20266;-85
2021/12/12 09:19:37;;;;;;;4.40;2.80;;;;;;;;;;5135470;27;20239;-85
2021/12/12 09:22:08;;;;;;;2.10;1.80;;;;;;;;;;5135761;27;20211;-85
2021/12/12 09:24:45;;;;;;;3.83;2.83;;;;;;;;;;5135249;27;20248;-85
2021/12/12 09:27:16;;;;;;;3.57;2.27;;;;;;;;;;5135604;27;20195;-85
2021/12/12 09:29:47;;;;;;;1.83;1.73;;;;;;;;;;5135275;27;20297;-85
2021/12/12 09:32:18;;;;;;;4.23;2.23;;;;;;;;;;5135115;27;20305;-85
2021/12/12 09:34:50;;;;;;;2.33;2.13;;;;;;;;;;5135439;27;20183;-85
2021/12/12 09:37:21;;;;;;;3.77;2.90;;;;;;;;;;5134988;27;20231;-84
2021/12/12 09:39:58;;;;;;;5.63;2.73;;;;;;;;;;5135202;27;20188;-84
2021/12/12 09:42:36;;;;;;;1.67;1.57;;;;;;;;;;5135197;27;20190;-84
2021/12/12 09:45:14;;;;;;;2.63;2.43;;;;;;;;;;5135043;27;20203;-84
2021/12/12 09:48:14;;;;;;;2.00;1.83;;;;;;;;;;5134800;27;20208;-84
2021/12/12 09:53:58;;;;;;;1.53;1.43;;;;;;;;;;5135217;27;20270;-84
2021/12/12 09:56:34;;;;;;;5.20;4.43;;;;;;;;;;5135056;27;20198;-84
2021/12/12 09:59:04;;;;;;;2.67;2.10;;;;;;;;;;5134931;27;20190;-84
2021/12/12 10:01:36;;;;;;;0.70;0.70;;;;;;;;;;5135191;27;20223;-84
2021/12/12 10:04:22;;;;;;;2.83;2.33;;;;;;;;;;5134755;27;20248;-84
2021/12/12 10:06:54;;;;;;;2.10;1.87;;;;;;;;;;5134523;27;20287;-84
2021/12/12 10:09:24;;;;;;;2.23;2.03;;;;;;;;;;5134559;27;20223;-84
2021/12/12 10:11:59;;;;;;;2.80;1.87;;;;;;;;;;5134613;27;20267;-84
2021/12/12 10:14:31;;;;;;;1.53;1.43;;;;;;;;;;5134846;27;20198;-84
2021/12/12 10:17:05;;;;;;;1.30;1.20;;;;;;;;;;5138972;27;20208;-84
2021/12/12 10:19:37;;;;;;;4.23;3.53;;;;;;;;;;5138754;27;20207;-84
2021/12/12 10:22:14;;;;;;;6.13;3.77;;;;;;;;;;5139071;27;20199;-84
2021/12/12 10:24:45;;;;;;;3.53;2.73;;;;;;;;;;5138712;27;20282;-84
2021/12/12 10:27:16;;;;;;;2.23;1.77;;;;;;;;;;5138796;27;20217;-84
2021/12/12 10:29:51;;;;;;;3.83;3.60;;;;;;;;;;5138982;27;20277;-84
2021/12/12 10:32:21;;;;;;;2.40;2.20;;;;;;;;;;5138360;27;20207;-84
2021/12/12 10:34:51;;;;;;;3.97;2.87;;;;;;;;;;5138919;27;20243;-84
2021/12/12 10:37:23;;;;;;;16.27;5.37;;;;;;;;;;5138715;27;20219;-84
2021/12/12 10:39:54;;;;;;;3.13;2.07;;;;;;;;;;5138761;27;20237;-84
2021/12/12 10:42:25;;;;;;;8.00;5.17;;;;;;;;;;5138197;27;20219;-84
2021/12/12 10:44:55;;;;;;;3.50;2.80;;;;;;;;;;5138862;27;20233;-84
2021/12/12 10:47:30;;;;;;;2.73;2.50;;;;;;;;;;5138347;27;20201;-84
2021/12/12 10:50:07;;;;;;;4.00;2.83;;;;;;;;;;5138506;27;20218;-84
2021/12/12 10:52:39;;;;;;;6.50;3.50;;;;;;;;;;5138403;27;20232;-84
2021/12/12 10:55:09;;;;;;;3.77;3.17;;;;;;;;;;5138711;27;20206;-85
2021/12/12 10:57:41;;;;;;;8.80;4.53;;;;;;;;;;5137955;27;20239;-84
2021/12/12 11:00:14;;;;;;;3.43;2.60;;;;;;;;;;5138416;27;20206;-84
2021/12/12 11:02:47;;;;;;;13.00;8.10;;;;;;;;;;5138035;27;20182;-84
2021/12/12 11:05:18;;;;;;;3.90;2.60;;;;;;;;;;5138086;27;20213;-84
2021/12/12 11:07:47;;;;;;;4.93;2.97;;;;;;;;;;5138302;27;20221;-84
2021/12/12 11:10:18;;;;;;;7.90;5.33;;;;;;;;;;5137762;27;20203;-84
2021/12/12 11:12:50;;;;;;;14.90;4.83;;;;;;;;;;5137959;27;20215;-84
2021/12/12 11:15:22;;;;;;;4.90;4.10;;;;;;;;;;5138364;27;20220;-84
2021/12/12 11:17:56;;;;;;;9.20;4.67;;;;;;;;;;5137521;27;20210;-84
2021/12/12 11:20:26;;;;;;;9.70;4.60;;;;;;;;;;5137823;27;20238;-84
2021/12/12 11:22:56;;;;;;;9.90;4.40;;;;;;;;;;5137541;27;20252;-84
2021/12/12 11:25:27;;;;;;;1.83;1.73;;;;;;;;;;5138021;27;20202;-84
2021/12/12 11:27:58;;;;;;;4.60;3.43;;;;;;;;;;5137135;27;20229;-84
2021/12/12 11:30:29;;;;;;;6.53;3.97;;;;;;;;;;5137775;27;20202;-84
2021/12/12 11:32:58;;;;;;;14.27;4.43;;;;;;;;;;5137248;27;20215;-84
2021/12/12 11:35:29;;;;;;;2.30;1.97;;;;;;;;;;5137386;27;20233;-84
2021/12/12 11:38:00;;;;;;;4.97;3.40;;;;;;;;;;5137553;27;20195;-84
2021/12/12 11:40:30;;;;;;;6.30;4.13;;;;;;;;;;5137766;27;20248;-84
2021/12/12 11:43:04;;;;;;;1.33;1.33;;;;;;;;;;5137633;27;20191;-84
2021/12/12 11:45:38;;;;;;;2.70;2.50;;;;;;;;;;5137590;27;20266;-84
2021/12/12 11:48:15;;;;;;;2.07;1.97;;;;;;;;;;5137215;27;20237;-84
2021/12/12 11:50:47;;;;;;;1.30;1.27;;;;;;;;;;5137078;27;20282;-84
2021/12/12 11:53:17;;;;;;;4.73;3.10;;;;;;;;;;5137050;27;20272;-84
2021/12/12 11:55:49;;;;;;;16.77;6.57;;;;;;;;;;5137041;27;20195;-84
2021/12/12 11:58:28;;;;;;;7.17;5.07;;;;;;;;;;5137094;27;20195;-84
2021/12/12 12:01:00;;;;;;;1.40;1.33;;;;;;;;;;5137061;27;20203;-84
2021/12/12 12:03:36;;;;;;;4.20;3.50;;;;;;;;;;5137194;27;20226;-84
2021/12/12 12:06:14;;;;;;;3.93;3.57;;;;;;;;;;5137117;27;20256;-84
2021/12/12 12:08:55;;;;;;;12.97;5.60;;;;;;;;;;5136612;27;20193;-84
2021/12/12 12:11:28;;;;;;;4.83;2.97;;;;;;;;;;5137226;27;20233;-84
2021/12/12 12:14:03;;;;;;;8.43;4.00;;;;;;;;;;5136727;27;20346;-84
2021/12/12 12:16:36;;;;;;;9.80;5.17;;;;;;;;;;5137280;27;20317;-84
2021/12/12 12:19:08;;;;;;;7.43;4.43;;;;;;;;;;5136809;27;20220;-84
2021/12/12 12:21:41;;;;;;;7.03;3.00;;;;;;;;;;5136300;27;20267;-84
2021/12/12 12:24:28;;;;;;;11.80;6.60;;;;;;;;;;5136441;27;20220;-84
2021/12/12 12:27:02;;;;;;;8.13;3.33;;;;;;;;;;5136333;27;20239;-84
2021/12/12 12:30:05;;;;;;;1.73;1.63;;;;;;;;;;5136654;27;20234;-84
2021/12/12 12:32:54;;;;;;;7.17;2.57;;;;;;;;;;5136113;27;20253;-84
2021/12/12 12:35:37;;;;;;;10.97;4.47;;;;;;;;;;5136435;27;20227;-84
2021/12/12 12:38:26;;;;;;;16.73;7.17;;;;;;;;;;5135694;27;20215;-84
2021/12/12 12:41:15;;;;;;;14.30;6.90;;;;;;;;;;5132978;27;20286;-84
2021/12/12 12:44:02;;;;;;;4.00;1.97;;;;;;;;;;5136333;27;20204;-84
2021/12/12 12:46:54;;;;;;;5.83;4.53;;;;;;;;;;5135882;27;20293;-84
2021/12/12 12:49:32;;;;;;;9.47;4.13;;;;;;;;;;5097464;27;20205;-84
2021/12/12 12:52:16;;;;;;;4.90;1.57;;;;;;;;;;5136024;27;20199;-84
2021/12/12 12:54:47;;;;;;;19.40;4.33;;;;;;;;;;5135951;27;20192;-84
2021/12/12 12:57:22;;;;;;;4.63;3.50;;;;;;;;;;5136034;27;20211;-85
2021/12/12 13:00:07;;;;;;;11.60;5.17;;;;;;;;;;5135912;27;20206;-84
2021/12/12 13:02:54;;;;;;;18.67;4.97;;;;;;;;;;5135534;27;20234;-85
2021/12/12 13:05:36;;;;;;;4.50;2.27;;;;;;;;;;5135762;27;20232;-84
2021/12/12 13:08:23;;;;;;;4.63;2.50;;;;;;;;;;5135673;27;20199;-85
2021/12/12 13:10:54;;;;;;;7.27;3.10;;;;;;;;;;5135750;27;20234;-84
2021/12/12 13:13:28;;;;;;;13.97;3.83;;;;;;;;;;5135577;27;20242;-84
2021/12/12 13:16:02;;;;;;;5.63;2.53;;;;;;;;;;5135357;27;20248;-84
2021/12/12 13:18:38;;;;;;;6.83;2.63;;;;;;;;;;5135630;27;20241;-85
2021/12/12 13:21:14;;;;;;;10.67;4.23;;;;;;;;;;5135264;27;20237;-84
2021/12/12 13:24:05;;;;;;;4.90;2.60;;;;;;;;;;5135525;27;20212;-84
2021/12/12 13:26:55;;;;;;;10.50;1.53;;;;;;;;;;5135316;27;20200;-84
2021/12/12 13:29:32;;;;;;;2.73;2.53;;;;;;;;;;5135242;27;20196;-84
2021/12/12 13:32:04;;;;;;;2.60;2.40;;;;;;;;;;5135394;27;20260;-84
2021/12/12 13:34:37;;;;;;;7.47;3.23;;;;;;;;;;5135362;27;20257;-84
2021/12/12 13:37:11;;;;;;;4.23;3.20;;;;;;;;;;5135492;27;20227;-84
2021/12/12 13:39:51;;;;;;;4.23;3.07;;;;;;;;;;5135115;27;20180;-84
2021/12/12 13:42:24;;;;;;;0.97;0.97;;;;;;;;;;5135182;27;20260;-84
2021/12/12 13:45:11;;;;;;;2.47;1.33;;;;;;;;;;5135026;27;20216;-85
2021/12/12 13:47:59;;;;;;;3.17;2.20;;;;;;;;;;5128541;27;20204;-84
2021/12/12 13:50:31;;;;;;;1.57;1.57;;;;;;;;;;5134284;27;20210;-85
2021/12/12 13:53:05;;;;;;;2.00;1.83;;;;;;;;;;5134725;27;20207;-85
2021/12/12 13:55:38;;;;;;;3.80;2.23;;;;;;;;;;5135323;27;20199;-84
2021/12/12 13:58:13;;;;;;;3.27;2.83;;;;;;;;;;5134722;27;20199;-84
2021/12/12 14:00:45;;;;;;;3.90;1.47;;;;;;;;;;5135050;27;20234;-84
2021/12/12 14:03:17;;;;;;;4.13;2.47;;;;;;;;;;5134469;27;20223;-84
2021/12/12 14:05:49;;;;;;;6.07;2.27;;;;;;;;;;5135013;27;20294;-84
2021/12/12 14:08:19;;;;;;;6.77;2.47;;;;;;;;;;5134968;27;20199;-85
2021/12/12 14:10:50;;;;;;;5.37;1.50;;;;;;;;;;5135121;27;20250;-85
2021/12/12 14:13:23;;;;;;;3.83;2.37;;;;;;;;;;5134916;27;20207;-84
2021/12/12 14:15:55;;;;;;;5.50;2.50;;;;;;;;;;5134857;27;20219;-85
2021/12/12 14:18:25;;;;;;;8.77;4.00;;;;;;;;;;5134993;27;20241;-85
2021/12/12 14:20:55;;;;;;;5.27;3.37;;;;;;;;;;5134375;27;20239;-84
2021/12/12 14:23:25;;;;;;;1.97;1.87;;;;;;;;;;5134387;27;20196;-84
2021/12/12 14:25:57;;;;;;;6.77;4.23;;;;;;;;;;5134574;27;20230;-85
2021/12/12 14:28:29;;;;;;;2.73;2.47;;;;;;;;;;5134973;27;20188;-85
2021/12/12 14:30:58;;;;;;;1.20;1.20;;;;;;;;;;5134670;27;20184;-85
2021/12/12 14:33:29;;;;;;;3.57;2.30;;;;;;;;;;5134531;27;20210;-85
2021/12/12 14:36:02;;;;;;;1.90;1.80;;;;;;;;;;5134922;27;20196;-85
2021/12/12 14:38:31;;;;;;;1.90;1.67;;;;;;;;;;5134683;27;20201;-85
2021/12/12 14:41:00;;;;;;;6.30;2.00;;;;;;;;;;5134504;27;20200;-85
2021/12/12 14:43:34;;;;;;;7.67;4.40;;;;;;;;;;5134815;27;20196;-85
2021/12/12 14:46:06;;;;;;;7.80;4.10;;;;;;;;;;5134587;27;20179;-85
2021/12/12 14:48:36;;;;;;;1.70;1.60;;;;;;;;;;5134559;27;20192;-85
2021/12/12 14:51:06;;;;;;;1.73;1.63;;;;;;;;;;5134283;27;20232;-85
2021/12/12 14:53:36;;;;;;;2.87;1.77;;;;;;;;;;5134138;27;20215;-85
2021/12/12 14:56:06;;;;;;;6.63;3.90;;;;;;;;;;5134437;27;20211;-85
2021/12/12 14:58:42;;;;;;;5.50;3.37;;;;;;;;;;5134659;27;20233;-85
2021/12/12 15:01:13;;;;;;;7.73;3.67;;;;;;;;;;5134736;27;20203;-85
2021/12/12 15:03:44;;;;;;;4.57;1.70;;;;;;;;;;5138266;27;20226;-85
2021/12/12 15:06:15;;;;;;;4.70;2.63;;;;;;;;;;5138441;27;20200;-85
2021/12/12 15:08:45;;;;;;;6.83;4.10;;;;;;;;;;5138234;27;20226;-85
2021/12/12 15:11:15;;;;;;;5.70;3.23;;;;;;;;;;5138211;27;20207;-85